ADDS METAR Data INFO
IDs: Format: Raw Decoded Include TAF

Data at: 2240 UTC 11 Dec 2017

KACY 112154Z 33003KT 10SM CLR 03/M04 A3003 RMK AO2 SLP171 T00281039
KACY 112054Z 30006KT 10SM CLR 06/M04 A3002 RMK AO2 SLP166 T00561044 55001
KACY 111954Z 31006KT 10SM CLR 06/M04 A3000 RMK AO2 SLP161 T00611039
KACY 111854Z 29009KT 10SM CLR 07/M06 A3002 RMK AO2 SLP166 T00671056
KACY 111754Z 29012G19KT 10SM CLR 07/M05 A3002 RMK AO2 SLP167 T00671050 10067 20017 58019
KACY 111654Z 28017G24KT 10SM CLR 07/M06 A3005 RMK AO2 SLP174 T00671056
KACY 111554Z 29011KT 10SM CLR 06/M03 A3007 RMK AO2 SLP185 T00561033
KACY 111454Z 28010KT 10SM BKN055 04/M03 A3008 RMK AO2 SLP186 T00441028 51010
KACY 111354Z 25005KT 10SM BKN060 03/M01 A3007 RMK AO2 SLP185 T00331011
KACY 111254Z 00000KT 10SM SCT090 BKN110 02/M01 A3006 RMK AO2 SLP181 T00171011
KACY 111154Z 20003KT 10SM OVC050 02/M02 A3005 RMK AO2 SNB02E12 SLP176 P0000 60000 T00221017 10022 20011 50007
KACY 111054Z 28008KT 10SM OVC055 02/M01 A3005 RMK AO2 SLP177 T00221011
KACY 110954Z 31009KT 10SM OVC060 01/M01 A3003 RMK AO2 SNB29E43 SLP171 P0000 T00111006
KACY 110854Z 26007KT 10SM OVC065 02/M01 A3003 RMK AO2 SLP169 T00221011 56005
KACY 110754Z AUTO 24005KT 10SM OVC100 02/M01 A3003 RMK AO2 SLP170 T00171011
KACY 110654Z 23004KT 10SM BKN110 02/M01 A3004 RMK AO2 SLP171 T00171011
KACY 110554Z 23004KT 10SM OVC110 02/M02 A3005 RMK AO2 SLP175 T00171017 10017 21006 58009
KACY 110454Z 23005KT 10SM OVC100 02/M02 A3006 RMK AO2 SLP178 T00171017 400441017
KACY 110354Z 22006KT 10SM SCT110 02/M02 A3006 RMK AO2 SLP180 T00171022
KACY 110254Z 22005KT 10SM FEW120 01/M04 A3007 RMK AO2 SLP184 T00061039 53002
KACY 110154Z 20005KT 10SM CLR M01/M05 A3007 RMK AO2 SLP181 T10061050
KACY 110054Z 21004KT 10SM CLR 00/M05 A3007 RMK AO2 SLP183 T00001050
KACY 102354Z 23005KT 10SM CLR 01/M04 A3007 RMK AO2 SLP181 T00111044 10044 20011 53017
KACY 102254Z 24005KT 10SM CLR 02/M04 A3005 RMK AO2 SLP176 T00221039
KACY 102154Z 23004KT 10SM BKN046 03/M04 A3002 RMK AO2 SLP167 T00331039
KACY 102054Z 27007KT 10SM BKN043 04/M04 A3001 RMK AO2 SLP164 T00391039 53011
KACY 101954Z 27010KT 10SM CLR 04/M04 A2999 RMK AO2 SLP156 T00391039
KACY 101854Z 28014KT 10SM CLR 04/M04 A2998 RMK AO2 SLP153 T00441039
KACY 101754Z 27010KT 10SM CLR 04/M04 A2998 RMK AO2 SLP153 T00391039 10044 21017 58004
KACY 101654Z 27013KT 10SM CLR 03/M03 A2999 RMK AO2 SLP157 T00331033
KACY 101554Z 27011G20KT 10SM CLR 03/M03 A3000 RMK AO2 SLP159 T00281033
KACY 101454Z 28013KT 10SM CLR 02/M03 A2999 RMK AO2 SLP157 T00171033 51023
KACY 101354Z 28008KT 10SM CLR 00/M04 A2998 RMK AO2 SLP153 T00001039
KACY 101254Z 26008KT 9SM CLR M01/M04 A2996 RMK AO2 SLP147 T10111039
KACY 101154Z 27007KT 9SM FEW110 M01/M03 A2993 RMK AO2 SLP134 60000 70037 T10111033 11006 21011 53034
KACY 101054Z 28010KT 7SM CLR M01/M03 A2988 RMK AO2 SLP120 T10111028